Time;durP1;ratioP1;P1;durP2;ratioP2;P2;SDS_P1;SDS_P2;PMS_P1;PMS_P2;Temp;Humidity;BMP_temperature;BMP_pressure;BME280_temperature;BME280_humidity;BME280_pressure;Samples;Min_cycle;Max_cycle;Signal;HPM_P1;HPM_P2
2023/10/09 00:02:07;;;;;;;4.13;1.42;;;;;;;;;;5893684;28;20056;-71
2023/10/09 00:04:58;;;;;;;1.40;1.30;;;;;;;;;;5911671;28;20037;-71
2023/10/09 00:07:49;;;;;;;8.93;2.50;;;;;;;;;;5910741;28;20048;-71
2023/10/09 00:10:52;;;;;;;2.10;1.23;;;;;;;;;;5910948;28;20045;-71
2023/10/09 00:13:57;;;;;;;1.75;0.82;;;;;;;;;;5894813;28;20406;-72
2023/10/09 00:16:49;;;;;;;1.73;1.25;;;;;;;;;;5903098;28;20041;-72
2023/10/09 00:19:42;;;;;;;2.88;1.63;;;;;;;;;;5901265;28;20047;-73
2023/10/09 00:22:37;;;;;;;1.83;1.40;;;;;;;;;;5891873;28;20120;-71
2023/10/09 00:25:30;;;;;;;1.60;0.82;;;;;;;;;;5910685;28;20051;-72
2023/10/09 00:28:22;;;;;;;1.13;0.88;;;;;;;;;;5910580;28;20156;-71
2023/10/09 00:31:26;;;;;;;2.95;1.73;;;;;;;;;;5910557;28;20472;-71
2023/10/09 00:34:20;;;;;;;1.92;1.48;;;;;;;;;;5910328;28;20040;-71
2023/10/09 00:37:25;;;;;;;2.75;1.80;;;;;;;;;;5891232;28;20054;-71
2023/10/09 00:40:28;;;;;;;6.82;2.05;;;;;;;;;;5897485;28;20506;-72
2023/10/09 00:43:19;;;;;;;5.50;1.88;;;;;;;;;;5910393;28;20051;-71
2023/10/09 00:46:23;;;;;;;4.70;1.73;;;;;;;;;;5910410;28;20132;-72
2023/10/09 00:49:15;;;;;;;5.22;2.67;;;;;;;;;;5894448;28;20055;-71
2023/10/09 00:52:17;;;;;;;5.03;2.33;;;;;;;;;;5891443;28;20075;-72
2023/10/09 00:55:27;;;;;;;3.88;2.35;;;;;;;;;;5887578;28;20152;-72
2023/10/09 00:58:23;;;;;;;1.83;1.73;;;;;;;;;;5895086;28;20056;-72
2023/10/09 01:01:17;;;;;;;4.55;2.72;;;;;;;;;;5893311;28;20495;-72
2023/10/09 01:04:14;;;;;;;3.25;1.67;;;;;;;;;;5892671;28;20377;-71
2023/10/09 01:07:16;;;;;;;2.58;2.10;;;;;;;;;;5909943;28;20119;-71
2023/10/09 01:10:11;;;;;;;6.47;3.55;;;;;;;;;;5913637;28;20150;-72
2023/10/09 01:13:03;;;;;;;1.67;1.48;;;;;;;;;;5915260;28;20486;-72
2023/10/09 01:15:57;;;;;;;5.88;3.13;;;;;;;;;;5915117;28;20126;-72
2023/10/09 01:18:56;;;;;;;4.80;2.55;;;;;;;;;;5914850;28;20053;-71
2023/10/09 01:21:48;;;;;;;3.60;2.13;;;;;;;;;;5897677;28;20052;-72
2023/10/09 01:24:39;;;;;;;3.88;3.30;;;;;;;;;;5914712;28;20041;-72
2023/10/09 01:27:32;;;;;;;4.30;3.00;;;;;;;;;;5914398;28;20106;-72
2023/10/09 01:30:23;;;;;;;4.07;2.35;;;;;;;;;;5914674;28;20131;-71
2023/10/09 01:33:24;;;;;;;3.95;2.22;;;;;;;;;;5914348;28;20036;-71
2023/10/09 01:36:15;;;;;;;2.78;2.38;;;;;;;;;;5914348;28;20076;-72
2023/10/09 01:39:09;;;;;;;2.70;1.95;;;;;;;;;;5914385;28;20048;-72
2023/10/09 01:42:05;;;;;;;5.03;2.15;;;;;;;;;;5914930;28;20422;-72
2023/10/09 01:44:58;;;;;;;3.25;2.70;;;;;;;;;;5897418;28;20544;-71
2023/10/09 01:47:53;;;;;;;8.93;3.80;;;;;;;;;;5914186;28;20037;-71
2023/10/09 01:50:48;;;;;;;4.07;2.85;;;;;;;;;;5896202;28;20067;-72
2023/10/09 01:53:39;;;;;;;4.00;1.90;;;;;;;;;;5913855;28;20495;-71
2023/10/09 01:56:30;;;;;;;6.55;3.38;;;;;;;;;;5913764;28;20052;-71
2023/10/09 01:59:21;;;;;;;3.67;2.47;;;;;;;;;;5896286;28;20071;-72
2023/10/09 02:05:25;;;;;;;1.80;1.58;;;;;;;;;;5913559;28;20124;-73
2023/10/09 02:08:21;;;;;;;4.18;2.30;;;;;;;;;;5913699;28;20044;-71
2023/10/09 02:11:14;;;;;;;4.40;2.10;;;;;;;;;;5913509;28;20111;-73
2023/10/09 02:14:18;;;;;;;1.83;1.63;;;;;;;;;;5913825;28;20044;-72
2023/10/09 02:17:10;;;;;;;9.00;3.08;;;;;;;;;;5897703;28;20056;-72
2023/10/09 02:20:16;;;;;;;5.63;2.33;;;;;;;;;;5912641;28;20059;-72
2023/10/09 02:23:13;;;;;;;12.20;4.68;;;;;;;;;;5896808;28;20346;-72
2023/10/09 02:26:05;;;;;;;4.10;1.90;;;;;;;;;;5913376;28;20071;-72
2023/10/09 02:29:00;;;;;;;6.93;2.75;;;;;;;;;;5913914;28;20045;-72
2023/10/09 02:32:00;;;;;;;3.20;1.45;;;;;;;;;;5913228;28;20048;-72
2023/10/09 02:34:53;;;;;;;2.67;1.52;;;;;;;;;;5913630;28;20101;-72
2023/10/09 02:37:47;;;;;;;5.07;1.95;;;;;;;;;;5912999;28;20049;-71
2023/10/09 02:43:55;;;;;;;2.53;1.95;;;;;;;;;;5905180;28;20115;-71
2023/10/09 02:46:45;;;;;;;2.33;2.13;;;;;;;;;;5912524;28;20131;-71
2023/10/09 02:49:38;;;;;;;2.55;2.05;;;;;;;;;;5911919;28;20495;-74
2023/10/09 02:52:34;;;;;;;3.30;2.70;;;;;;;;;;5911748;28;20119;-73
2023/10/09 02:55:26;;;;;;;10.93;2.42;;;;;;;;;;5911987;28;20064;-73
2023/10/09 02:58:20;;;;;;;12.95;1.75;;;;;;;;;;5900328;28;20060;-73
2023/10/09 03:01:16;;;;;;;2.83;1.40;;;;;;;;;;5892464;28;20111;-72
2023/10/09 03:04:10;;;;;;;3.40;1.98;;;;;;;;;;5903048;28;20082;-72
2023/10/09 03:07:03;;;;;;;4.78;2.13;;;;;;;;;;5886284;28;20103;-72
2023/10/09 03:09:55;;;;;;;4.90;2.00;;;;;;;;;;5894122;28;20047;-72
2023/10/09 03:12:51;;;;;;;3.53;2.13;;;;;;;;;;5910169;28;20506;-72
2023/10/09 03:15:42;;;;;;;2.65;2.17;;;;;;;;;;5910195;28;20040;-73
2023/10/09 03:18:33;;;;;;;1.33;1.20;;;;;;;;;;5910326;28;20052;-73
2023/10/09 03:21:24;;;;;;;3.97;2.72;;;;;;;;;;5910255;28;20044;-72
2023/10/09 03:24:15;;;;;;;3.05;2.28;;;;;;;;;;5910864;28;20045;-72
2023/10/09 03:27:07;;;;;;;5.47;2.25;;;;;;;;;;5911996;28;20139;-72
2023/10/09 03:29:57;;;;;;;3.65;2.78;;;;;;;;;;5912761;28;20044;-73
2023/10/09 03:32:53;;;;;;;8.57;3.33;;;;;;;;;;5912133;28;20070;-72
2023/10/09 03:35:44;;;;;;;4.22;1.92;;;;;;;;;;5878201;28;20049;-72
2023/10/09 03:38:39;;;;;;;10.73;2.05;;;;;;;;;;5911851;28;20068;-72
2023/10/09 03:41:29;;;;;;;1.77;1.65;;;;;;;;;;5911723;28;20048;-74
2023/10/09 03:44:20;;;;;;;8.23;2.80;;;;;;;;;;5911633;28;20052;-72
2023/10/09 03:47:11;;;;;;;2.35;2.00;;;;;;;;;;5894013;28;20040;-73
2023/10/09 03:50:20;;;;;;;5.88;2.75;;;;;;;;;;5911673;28;20044;-72
2023/10/09 03:53:12;;;;;;;14.68;6.55;;;;;;;;;;5911554;28;20051;-72
2023/10/09 03:56:15;;;;;;;10.68;3.90;;;;;;;;;;5894084;28;20115;-72
2023/10/09 03:59:05;;;;;;;3.90;3.05;;;;;;;;;;5895038;28;20044;-73
2023/10/09 04:01:58;;;;;;;11.10;3.90;;;;;;;;;;5911835;28;20052;-73
2023/10/09 04:04:51;;;;;;;13.05;5.45;;;;;;;;;;5911144;28;20056;-73
2023/10/09 04:07:43;;;;;;;9.88;4.07;;;;;;;;;;5911218;28;20048;-71
2023/10/09 04:10:43;;;;;;;6.10;2.40;;;;;;;;;;5893810;28;20457;-71
2023/10/09 04:13:34;;;;;;;29.33;3.85;;;;;;;;;;5911333;28;20107;-72
2023/10/09 04:19:22;;;;;;;2.65;1.67;;;;;;;;;;5910875;28;20440;-72
2023/10/09 04:22:27;;;;;;;3.60;2.30;;;;;;;;;;5911041;28;20036;-71
2023/10/09 04:25:41;;;;;;;3.67;3.05;;;;;;;;;;5910809;28;20063;-72
2023/10/09 04:28:33;;;;;;;15.55;5.30;;;;;;;;;;5910758;28;20066;-73
2023/10/09 04:31:31;;;;;;;12.20;3.75;;;;;;;;;;5910566;28;20058;-72
2023/10/09 04:40:12;;;;;;;5.75;3.38;;;;;;;;;;5893025;28;20047;-73
2023/10/09 04:43:07;;;;;;;10.38;4.72;;;;;;;;;;5910377;28;20048;-73
2023/10/09 04:46:23;;;;;;;9.57;4.15;;;;;;;;;;5911089;28;20051;-72
2023/10/09 04:49:29;;;;;;;3.85;3.35;;;;;;;;;;5895932;28;20045;-72
2023/10/09 04:52:51;;;;;;;6.43;2.33;;;;;;;;;;5894888;28;20055;-71
2023/10/09 04:55:38;;;;;;;6.38;2.35;;;;;;;;;;5895739;28;20480;-72
2023/10/09 04:58:32;;;;;;;4.18;2.28;;;;;;;;;;5910023;28;20055;-72
2023/10/09 05:01:35;;;;;;;6.15;2.55;;;;;;;;;;5910308;28;20425;-72
2023/10/09 05:04:40;;;;;;;3.20;2.67;;;;;;;;;;5910180;28;20048;-74
2023/10/09 05:07:54;;;;;;;1.77;1.67;;;;;;;;;;5892369;28;20076;-72
2023/10/09 05:14:11;;;;;;;6.53;3.67;;;;;;;;;;5910878;28;20068;-73
2023/10/09 05:17:03;;;;;;;2.75;2.35;;;;;;;;;;5895455;28;20051;-72
2023/10/09 05:20:55;;;;;;;5.82;2.63;;;;;;;;;;5910287;28;20040;-73
2023/10/09 05:23:23;;;;;;;6.03;2.83;;;;;;;;;;5910151;28;20037;-73
2023/10/09 05:26:37;;;;;;;8.30;2.67;;;;;;;;;;5910222;28;20108;-72
2023/10/09 05:32:34;;;;;;;7.32;4.80;;;;;;;;;;5909797;28;20127;-74
2023/10/09 05:35:40;;;;;;;7.47;4.13;;;;;;;;;;5910177;28;20063;-72
2023/10/09 05:38:44;;;;;;;8.32;4.97;;;;;;;;;;5894236;28;20539;-72
2023/10/09 05:41:52;;;;;;;5.57;4.75;;;;;;;;;;5910166;28;20697;-72
2023/10/09 05:47:56;;;;;;;8.93;4.90;;;;;;;;;;5894705;28;20508;-73
2023/10/09 06:06:06;;;;;;;15.07;8.25;;;;;;;;;;5913905;28;20131;-72
2023/10/09 06:15:31;;;;;;;3.28;2.97;;;;;;;;;;5913782;28;20044;-71
2023/10/09 06:18:25;;;;;;;2.38;2.20;;;;;;;;;;5913447;28;20040;-73
2023/10/09 06:30:35;;;;;;;4.07;3.20;;;;;;;;;;5910298;28;20071;-72
2023/10/09 06:33:29;;;;;;;7.65;3.65;;;;;;;;;;5913169;28;20126;-74
2023/10/09 06:36:29;;;;;;;8.15;3.78;;;;;;;;;;5913463;28;20046;-72
2023/10/09 06:42:43;;;;;;;9.60;6.97;;;;;;;;;;5913132;28;20053;-73
2023/10/09 06:45:44;;;;;;;7.57;5.95;;;;;;;;;;5913291;28;20048;-73
2023/10/09 06:54:21;;;;;;;2.85;2.35;;;;;;;;;;5912785;28;20037;-72
2023/10/09 06:57:43;;;;;;;3.92;3.40;;;;;;;;;;5912818;28;20060;-73
2023/10/09 07:00:54;;;;;;;3.45;2.35;;;;;;;;;;5912757;28;20060;-71
2023/10/09 07:03:59;;;;;;;2.78;2.28;;;;;;;;;;5912510;28;20040;-74
2023/10/09 07:06:51;;;;;;;2.70;2.35;;;;;;;;;;5912451;28;20055;-72
2023/10/09 07:09:42;;;;;;;3.35;2.50;;;;;;;;;;5894984;28;20076;-72
2023/10/09 07:12:34;;;;;;;5.90;3.45;;;;;;;;;;5912640;28;20044;-72
2023/10/09 07:16:23;;;;;;;12.25;5.25;;;;;;;;;;5894806;28;20224;-71
2023/10/09 07:18:54;;;;;;;10.10;6.03;;;;;;;;;;5912443;28;20499;-71
2023/10/09 07:21:53;;;;;;;8.20;4.68;;;;;;;;;;5912493;28;20044;-72
2023/10/09 07:24:49;;;;;;;10.50;6.22;;;;;;;;;;5912175;28;20051;-72
2023/10/09 07:27:43;;;;;;;9.02;5.50;;;;;;;;;;5912049;28;20051;-72
2023/10/09 07:30:36;;;;;;;7.20;3.53;;;;;;;;;;5895005;28;20060;-75
2023/10/09 07:36:37;;;;;;;;;;;;;;;;;;5912541;28;20055;-72
2023/10/09 07:39:34;;;;;;;4.00;3.40;;;;;;;;;;5911993;28;19924;-73
2023/10/09 07:42:33;;;;;;;2.22;2.05;;;;;;;;;;5894656;28;20040;-73
2023/10/09 07:48:15;;;;;;;12.02;6.25;;;;;;;;;;5911700;28;20071;-72
2023/10/09 07:51:12;;;;;;;13.65;9.43;;;;;;;;;;5911679;28;20055;-73
2023/10/09 07:54:09;;;;;;;6.70;4.18;;;;;;;;;;5911465;28;20182;-72
2023/10/09 07:57:15;;;;;;;2.70;2.13;;;;;;;;;;5894319;28;20040;-75
2023/10/09 08:00:36;;;;;;;5.85;4.78;;;;;;;;;;5884731;28;20049;-75
2023/10/09 08:03:24;;;;;;;6.07;3.55;;;;;;;;;;5910883;28;20048;-73
2023/10/09 08:09:46;;;;;;;3.90;2.92;;;;;;;;;;5911106;28;20467;-75
2023/10/09 08:15:52;;;;;;;2.13;1.75;;;;;;;;;;5911315;28;20044;-75
2023/10/09 08:18:44;;;;;;;2.83;2.22;;;;;;;;;;5910397;28;20044;-75
2023/10/09 08:21:41;;;;;;;1.48;1.38;;;;;;;;;;5910967;28;20044;-75
2023/10/09 08:24:40;;;;;;;3.80;1.55;;;;;;;;;;5910895;28;20052;-72
2023/10/09 08:36:22;;;;;;;2.22;1.63;;;;;;;;;;5910968;28;20352;-73
2023/10/09 08:39:25;;;;;;;4.30;2.35;;;;;;;;;;5910653;28;20060;-74
2023/10/09 08:42:15;;;;;;;4.20;1.65;;;;;;;;;;5910504;28;20053;-72
2023/10/09 08:45:07;;;;;;;4.72;1.63;;;;;;;;;;5892900;28;20139;-73
2023/10/09 08:48:04;;;;;;;1.60;1.25;;;;;;;;;;5911047;28;20052;-75
2023/10/09 08:50:56;;;;;;;4.93;4.25;;;;;;;;;;5893862;28;20609;-75
2023/10/09 08:53:47;;;;;;;6.85;4.15;;;;;;;;;;5910483;28;20040;-74
2023/10/09 08:56:39;;;;;;;1.10;1.00;;;;;;;;;;5910665;28;20056;-74
2023/10/09 08:59:30;;;;;;;0.63;0.60;;;;;;;;;;5910357;28;20182;-73
2023/10/09 09:02:21;;;;;;;13.40;1.52;;;;;;;;;;5910295;28;20052;-73
2023/10/09 09:05:24;;;;;;;3.50;2.13;;;;;;;;;;5910636;28;20391;-74
2023/10/09 09:08:28;;;;;;;3.47;1.73;;;;;;;;;;5910709;28;20427;-73
2023/10/09 09:11:24;;;;;;;1.08;0.85;;;;;;;;;;5910219;28;20388;-73
2023/10/09 09:14:24;;;;;;;1.13;0.90;;;;;;;;;;5910383;28;20041;-72
2023/10/09 09:17:23;;;;;;;0.75;0.65;;;;;;;;;;5910033;28;20045;-73
2023/10/09 09:20:34;;;;;;;;;;;;;;;;;;5876646;28;20505;-73
2023/10/09 09:23:26;;;;;;;0.55;0.55;;;;;;;;;;5910024;28;19931;-74
2023/10/09 09:26:34;;;;;;;2.65;1.95;;;;;;;;;;5910278;28;20048;-72
2023/10/09 09:29:55;;;;;;;8.35;2.78;;;;;;;;;;5895126;28;20411;-72
2023/10/09 09:33:15;;;;;;;9.50;5.90;;;;;;;;;;5898298;28;20064;-73
2023/10/09 09:36:04;;;;;;;4.07;2.15;;;;;;;;;;5914986;28;20033;-75
2023/10/09 09:39:01;;;;;;;3.28;1.42;;;;;;;;;;5914929;28;20395;-74
2023/10/09 09:41:57;;;;;;;1.13;1.05;;;;;;;;;;5897475;28;20040;-72
2023/10/09 09:44:48;;;;;;;0.90;0.75;;;;;;;;;;5914417;28;20055;-74
2023/10/09 09:47:46;;;;;;;0.20;0.20;;;;;;;;;;5896453;28;20050;-74
2023/10/09 09:50:43;;;;;;;0.75;0.75;;;;;;;;;;5897658;28;20048;-73
2023/10/09 09:53:37;;;;;;;5.03;1.20;;;;;;;;;;5914106;28;20064;-74
2023/10/09 09:56:29;;;;;;;0.43;0.40;;;;;;;;;;5914142;28;20415;-72
2023/10/09 09:59:29;;;;;;;12.32;8.32;;;;;;;;;;5913969;28;20055;-73
2023/10/09 10:02:40;;;;;;;7.63;3.90;;;;;;;;;;5913879;28;20071;-73
2023/10/09 10:05:33;;;;;;;3.08;2.35;;;;;;;;;;5896200;28;20040;-75
2023/10/09 10:08:33;;;;;;;5.10;3.45;;;;;;;;;;5896181;28;20155;-73
2023/10/09 10:11:51;;;;;;;3.03;2.20;;;;;;;;;;5913942;28;20119;-73
2023/10/09 10:15:07;;;;;;;;;;;;;;;;;;5914509;28;20506;-74
2023/10/09 10:18:01;;;;;;;0.32;0.32;;;;;;;;;;5898212;28;19920;-74
2023/10/09 10:24:30;;;;;;;0.60;0.60;;;;;;;;;;5907720;28;20036;-75
2023/10/09 10:27:26;;;;;;;0.85;0.75;;;;;;;;;;5913382;28;20092;-75
2023/10/09 10:30:31;;;;;;;0.30;0.30;;;;;;;;;;5913445;28;20052;-74
2023/10/09 10:33:27;;;;;;;0.95;0.75;;;;;;;;;;5913250;28;20399;-74
2023/10/09 10:36:22;;;;;;;1.17;0.82;;;;;;;;;;5913291;28;20040;-75
2023/10/09 10:39:21;;;;;;;0.52;0.52;;;;;;;;;;5913393;28;20345;-72
2023/10/09 10:42:36;;;;;;;1.25;1.15;;;;;;;;;;5912413;28;20045;-75
2023/10/09 10:45:34;;;;;;;2.92;0.88;;;;;;;;;;5898440;28;20448;-75
2023/10/09 10:48:37;;;;;;;1.50;0.63;;;;;;;;;;5913100;28;20136;-73
2023/10/09 10:51:37;;;;;;;0.98;0.68;;;;;;;;;;5913409;28;20040;-74
2023/10/09 10:57:28;;;;;;;0.25;0.25;;;;;;;;;;5912942;28;20044;-74
2023/10/09 11:03:29;;;;;;;0.80;0.40;;;;;;;;;;5912790;28;20048;-75
2023/10/09 11:06:35;;;;;;;1.20;0.70;;;;;;;;;;5912817;28;20206;-75
2023/10/09 11:09:35;;;;;;;0.40;0.40;;;;;;;;;;5912822;28;20043;-73
2023/10/09 11:12:53;;;;;;;2.05;0.77;;;;;;;;;;5897939;28;20040;-74
2023/10/09 11:15:44;;;;;;;0.63;0.63;;;;;;;;;;5896155;28;20128;-75
2023/10/09 11:18:46;;;;;;;0.43;0.43;;;;;;;;;;5912148;28;20048;-75
2023/10/09 11:21:40;;;;;;;0.35;0.35;;;;;;;;;;5895468;28;20048;-74
2023/10/09 11:24:35;;;;;;;0.40;0.40;;;;;;;;;;5894924;28;20435;-74
2023/10/09 11:27:32;;;;;;;1.75;0.85;;;;;;;;;;5894868;28;20085;-74
2023/10/09 11:30:32;;;;;;;0.20;0.20;;;;;;;;;;5911984;28;20048;-75
2023/10/09 11:33:29;;;;;;;0.20;0.20;;;;;;;;;;5894372;28;20066;-74
2023/10/09 11:36:32;;;;;;;0.40;0.40;;;;;;;;;;5912075;28;20574;-74
2023/10/09 11:39:34;;;;;;;0.20;0.20;;;;;;;;;;5895935;28;20131;-74
2023/10/09 11:42:38;;;;;;;1.38;0.95;;;;;;;;;;5911761;28;20049;-75
2023/10/09 11:45:29;;;;;;;0.50;0.50;;;;;;;;;;5911929;28;20452;-74
2023/10/09 11:48:33;;;;;;;0.20;0.20;;;;;;;;;;5911632;28;20040;-74
2023/10/09 11:51:24;;;;;;;1.00;0.65;;;;;;;;;;5893889;28;20467;-75
2023/10/09 11:54:35;;;;;;;0.30;0.30;;;;;;;;;;5910695;28;20064;-76
2023/10/09 11:57:31;;;;;;;0.43;0.43;;;;;;;;;;5894496;28;20044;-73
2023/10/09 12:00:42;;;;;;;0.63;0.50;;;;;;;;;;5911376;28;20037;-77
2023/10/09 12:03:33;;;;;;;0.70;0.70;;;;;;;;;;5911529;28;20110;-75
2023/10/09 12:06:32;;;;;;;1.15;1.02;;;;;;;;;;5911419;28;20392;-75
2023/10/09 12:09:24;;;;;;;0.47;0.47;;;;;;;;;;5911521;28;20056;-74
2023/10/09 12:12:15;;;;;;;0.47;0.47;;;;;;;;;;5911104;28;20051;-75
2023/10/09 12:15:07;;;;;;;1.05;0.95;;;;;;;;;;5911352;28;20047;-75
2023/10/09 12:17:57;;;;;;;0.70;0.35;;;;;;;;;;5911659;28;20044;-73
2023/10/09 12:20:52;;;;;;;0.10;0.10;;;;;;;;;;5911144;28;20166;-74
2023/10/09 12:23:47;;;;;;;0.55;0.55;;;;;;;;;;5911123;28;20043;-74
2023/10/09 12:26:40;;;;;;;1.48;0.82;;;;;;;;;;5911114;28;20072;-74
2023/10/09 12:29:31;;;;;;;0.95;0.80;;;;;;;;;;5893498;28;20056;-74
2023/10/09 12:32:22;;;;;;;0.50;0.50;;;;;;;;;;5910546;28;20041;-76
2023/10/09 12:35:17;;;;;;;0.57;0.57;;;;;;;;;;5910585;28;20063;-75
2023/10/09 12:38:12;;;;;;;0.60;0.40;;;;;;;;;;5910726;28;20812;-74
2023/10/09 12:41:20;;;;;;;3.13;0.88;;;;;;;;;;5910708;28;20048;-77
2023/10/09 12:44:14;;;;;;;0.30;0.30;;;;;;;;;;5910926;28;20359;-75
2023/10/09 12:47:07;;;;;;;1.13;0.73;;;;;;;;;;5909155;28;20041;-73
2023/10/09 12:49:58;;;;;;;0.35;0.35;;;;;;;;;;5911447;28;20123;-75
2023/10/09 12:52:50;;;;;;;1.25;0.60;;;;;;;;;;5910647;28;20130;-74
2023/10/09 12:55:41;;;;;;;1.65;1.30;;;;;;;;;;5893074;28;20209;-74
2023/10/09 12:58:37;;;;;;;1.38;0.95;;;;;;;;;;5910604;28;20123;-75
2023/10/09 13:01:42;;;;;;;0.40;0.40;;;;;;;;;;5910465;28;20423;-75
2023/10/09 13:04:35;;;;;;;0.50;0.50;;;;;;;;;;5893482;28;20055;-72
2023/10/09 13:07:25;;;;;;;0.52;0.38;;;;;;;;;;5892612;28;20099;-73
2023/10/09 13:10:16;;;;;;;1.67;1.52;;;;;;;;;;5910100;28;20052;-74
2023/10/09 13:13:07;;;;;;;1.58;1.48;;;;;;;;;;5909588;28;20128;-74
2023/10/09 13:15:58;;;;;;;0.90;0.88;;;;;;;;;;5910668;28;20048;-75
2023/10/09 13:18:53;;;;;;;1.20;0.90;;;;;;;;;;5909552;28;20055;-74
2023/10/09 13:21:44;;;;;;;0.20;0.20;;;;;;;;;;5909936;28;20063;-73
2023/10/09 13:24:39;;;;;;;0.95;0.88;;;;;;;;;;5892032;28;20080;-74
2023/10/09 13:27:34;;;;;;;1.00;0.82;;;;;;;;;;5909453;28;20491;-75
2023/10/09 13:30:24;;;;;;;1.25;1.05;;;;;;;;;;5909938;28;20079;-73
2023/10/09 13:33:17;;;;;;;0.38;0.38;;;;;;;;;;5909813;28;20044;-75
2023/10/09 13:36:19;;;;;;;0.82;0.82;;;;;;;;;;5909888;28;20051;-73
2023/10/09 13:39:26;;;;;;;2.28;1.90;;;;;;;;;;5884377;28;20365;-74
2023/10/09 13:42:17;;;;;;;2.05;1.52;;;;;;;;;;5908924;28;20044;-75
2023/10/09 13:45:15;;;;;;;1.50;1.10;;;;;;;;;;5909833;28;20049;-74
2023/10/09 13:48:11;;;;;;;2.65;1.83;;;;;;;;;;5909704;28;20044;-73
2023/10/09 13:51:07;;;;;;;2.17;1.95;;;;;;;;;;5909796;28;20045;-75
2023/10/09 13:53:57;;;;;;;2.20;1.17;;;;;;;;;;5910110;28;20610;-75
2023/10/09 13:56:52;;;;;;;0.90;0.90;;;;;;;;;;5909849;28;20049;-74
2023/10/09 13:59:49;;;;;;;22.02;11.00;;;;;;;;;;5892614;28;20167;-75
2023/10/09 14:02:40;;;;;;;58.35;32.78;;;;;;;;;;5909561;28;20126;-75
2023/10/09 14:05:33;;;;;;;9.65;3.70;;;;;;;;;;5909689;28;20047;-74
2023/10/09 14:08:26;;;;;;;2.50;1.38;;;;;;;;;;5909462;28;20063;-76
2023/10/09 14:11:17;;;;;;;2.05;1.60;;;;;;;;;;5891943;28;20055;-72
2023/10/09 14:14:09;;;;;;;2.58;0.82;;;;;;;;;;5909266;28;20051;-74
2023/10/09 14:17:02;;;;;;;1.05;0.95;;;;;;;;;;5910923;28;20047;-73
2023/10/09 14:20:00;;;;;;;1.52;1.42;;;;;;;;;;5914483;28;20052;-74
2023/10/09 14:22:52;;;;;;;2.35;1.77;;;;;;;;;;5913788;28;20468;-73
2023/10/09 14:25:44;;;;;;;51.95;25.02;;;;;;;;;;5913635;28;20132;-74
2023/10/09 14:28:37;;;;;;;53.47;27.00;;;;;;;;;;5913710;28;20112;-75
2023/10/09 14:31:28;;;;;;;18.10;7.72;;;;;;;;;;5913586;28;20045;-74
2023/10/09 14:34:21;;;;;;;15.60;11.75;;;;;;;;;;5913560;28;20037;-75
2023/10/09 14:37:14;;;;;;;47.92;21.85;;;;;;;;;;5887385;28;20052;-75
2023/10/09 14:40:12;;;;;;;271.80;122.03;;;;;;;;;;5892383;28;20125;-75
2023/10/09 14:43:03;;;;;;;329.00;148.68;;;;;;;;;;5904892;28;20095;-73
2023/10/09 14:45:55;;;;;;;119.00;55.47;;;;;;;;;;5898126;28;20063;-73
2023/10/09 14:48:46;;;;;;;124.57;60.20;;;;;;;;;;5898659;28;20041;-72
2023/10/09 14:51:37;;;;;;;29.05;13.23;;;;;;;;;;5890005;28;20396;-74
2023/10/09 14:54:28;;;;;;;76.90;30.55;;;;;;;;;;5889670;28;20079;-75
2023/10/09 14:57:19;;;;;;;17.30;6.72;;;;;;;;;;5887557;28;20051;-73
2023/10/09 15:00:15;;;;;;;75.63;31.35;;;;;;;;;;5884594;28;20052;-73
2023/10/09 15:03:12;;;;;;;53.25;26.08;;;;;;;;;;5903740;28;20171;-73
2023/10/09 15:06:08;;;;;;;13.43;9.02;;;;;;;;;;5898181;28;20488;-73
2023/10/09 15:09:08;;;;;;;10.60;5.13;;;;;;;;;;5889936;28;20052;-73
2023/10/09 15:11:59;;;;;;;6.93;4.00;;;;;;;;;;5896442;28;20041;-73
2023/10/09 15:14:53;;;;;;;9.93;4.03;;;;;;;;;;5888368;28;20075;-72
2023/10/09 15:17:47;;;;;;;14.25;4.40;;;;;;;;;;5910892;28;20055;-73
2023/10/09 15:20:40;;;;;;;4.85;3.75;;;;;;;;;;5912410;28;20052;-72
2023/10/09 15:23:31;;;;;;;7.05;5.68;;;;;;;;;;5910824;28;20036;-75
2023/10/09 15:26:24;;;;;;;4.25;3.47;;;;;;;;;;5912381;28;20040;-75
2023/10/09 15:29:16;;;;;;;3.20;2.70;;;;;;;;;;5912105;28;20048;-74
2023/10/09 15:32:14;;;;;;;18.10;9.80;;;;;;;;;;5911962;28;20040;-74
2023/10/09 15:35:06;;;;;;;62.63;30.80;;;;;;;;;;5895852;28;20052;-74
2023/10/09 15:37:57;;;;;;;97.70;46.90;;;;;;;;;;5912696;28;20539;-73
2023/10/09 15:40:48;;;;;;;7.72;4.15;;;;;;;;;;5912086;28;20079;-74
2023/10/09 15:43:39;;;;;;;0.82;0.82;;;;;;;;;;5911995;28;20045;-75
2023/10/09 15:46:34;;;;;;;1.23;1.00;;;;;;;;;;5911914;28;20119;-74
2023/10/09 15:49:30;;;;;;;4.57;2.65;;;;;;;;;;5911914;28;20131;-75
2023/10/09 15:52:26;;;;;;;4.88;3.17;;;;;;;;;;5893963;28;20608;-75
2023/10/09 15:55:20;;;;;;;2.53;2.10;;;;;;;;;;5911786;28;20066;-74
2023/10/09 15:58:12;;;;;;;1.92;1.48;;;;;;;;;;5886221;28;20045;-75
2023/10/09 16:01:05;;;;;;;6.05;2.30;;;;;;;;;;5911585;28;20051;-73
2023/10/09 16:03:56;;;;;;;9.18;2.33;;;;;;;;;;5911943;28;20045;-76
2023/10/09 16:06:46;;;;;;;1.33;1.00;;;;;;;;;;5911597;28;20056;-75
2023/10/09 16:09:38;;;;;;;3.80;2.53;;;;;;;;;;5911516;28;20400;-74
2023/10/09 16:12:31;;;;;;;2.63;2.42;;;;;;;;;;5911157;28;20052;-74
2023/10/09 16:15:24;;;;;;;5.53;4.10;;;;;;;;;;5911328;28;20044;-75
2023/10/09 16:18:20;;;;;;;1.38;1.27;;;;;;;;;;5910900;28;20048;-74
2023/10/09 16:21:12;;;;;;;12.10;7.85;;;;;;;;;;5911052;28;20052;-75
2023/10/09 16:24:06;;;;;;;3.75;3.42;;;;;;;;;;5910444;28;20064;-74
2023/10/09 16:26:59;;;;;;;7.72;4.45;;;;;;;;;;5911408;28;20053;-73
2023/10/09 16:29:52;;;;;;;14.90;7.72;;;;;;;;;;5911336;28;20040;-75
2023/10/09 16:32:43;;;;;;;9.55;7.20;;;;;;;;;;5910538;28;20052;-73
2023/10/09 16:35:37;;;;;;;2.70;2.50;;;;;;;;;;5910869;28;20055;-76
2023/10/09 16:38:28;;;;;;;2.40;2.13;;;;;;;;;;5910666;28;20048;-74
2023/10/09 16:41:19;;;;;;;4.53;2.60;;;;;;;;;;5910047;28;20048;-73
2023/10/09 16:44:10;;;;;;;7.00;5.88;;;;;;;;;;5910875;28;20511;-75
2023/10/09 16:47:01;;;;;;;10.10;5.28;;;;;;;;;;5910885;28;20057;-75
2023/10/09 16:49:52;;;;;;;20.38;10.32;;;;;;;;;;5911063;28;20044;-75
2023/10/09 16:52:44;;;;;;;14.88;7.32;;;;;;;;;;5910647;28;20044;-75
2023/10/09 16:55:41;;;;;;;7.90;3.88;;;;;;;;;;5910490;28;20098;-73
2023/10/09 16:58:32;;;;;;;7.93;5.68;;;;;;;;;;5910322;28;20123;-74
2023/10/09 17:01:27;;;;;;;8.77;5.32;;;;;;;;;;5910441;28;20063;-74
2023/10/09 17:04:22;;;;;;;9.77;5.75;;;;;;;;;;5910310;28;20083;-74
2023/10/09 17:07:14;;;;;;;7.20;4.28;;;;;;;;;;5910337;28;20040;-74
2023/10/09 17:10:14;;;;;;;8.43;4.43;;;;;;;;;;5910486;28;20072;-74
2023/10/09 17:13:07;;;;;;;7.72;2.53;;;;;;;;;;5910118;28;20041;-73
2023/10/09 17:15:58;;;;;;;5.25;3.22;;;;;;;;;;5910989;28;20047;-73
2023/10/09 17:18:53;;;;;;;7.18;4.95;;;;;;;;;;5910073;28;20048;-74
2023/10/09 17:21:47;;;;;;;7.05;4.32;;;;;;;;;;5910188;28;20044;-73
2023/10/09 17:24:41;;;;;;;6.85;2.75;;;;;;;;;;5910370;28;20468;-74
2023/10/09 17:27:35;;;;;;;5.55;3.50;;;;;;;;;;5910223;28;20446;-75
2023/10/09 17:30:32;;;;;;;3.42;3.10;;;;;;;;;;5892483;28;20403;-75
2023/10/09 17:33:23;;;;;;;9.30;5.50;;;;;;;;;;5909991;28;20106;-72
2023/10/09 17:36:17;;;;;;;7.95;5.07;;;;;;;;;;5910390;28;20112;-75
2023/10/09 17:39:08;;;;;;;6.57;3.95;;;;;;;;;;5909720;28;20055;-74
2023/10/09 17:41:59;;;;;;;9.65;6.18;;;;;;;;;;5910592;28;20060;-72
2023/10/09 17:44:50;;;;;;;6.75;2.55;;;;;;;;;;5910255;28;20047;-73
2023/10/09 17:47:41;;;;;;;14.90;3.08;;;;;;;;;;5891849;28;20056;-74
2023/10/09 17:50:32;;;;;;;2.97;2.67;;;;;;;;;;5910701;28;20112;-75
2023/10/09 17:53:23;;;;;;;3.42;2.60;;;;;;;;;;5914615;28;20048;-72
2023/10/09 17:56:14;;;;;;;2.38;2.17;;;;;;;;;;5914387;28;20049;-74
2023/10/09 17:59:11;;;;;;;7.28;3.75;;;;;;;;;;5914070;28;20400;-73
2023/10/09 18:02:03;;;;;;;6.53;4.28;;;;;;;;;;5914271;28;20052;-74
2023/10/09 18:04:55;;;;;;;8.35;6.07;;;;;;;;;;5914693;28;20130;-75
2023/10/09 18:07:48;;;;;;;12.48;8.13;;;;;;;;;;5913876;28;20060;-72
2023/10/09 18:10:43;;;;;;;29.85;14.57;;;;;;;;;;5914195;28;20238;-73
2023/10/09 18:13:35;;;;;;;17.73;7.93;;;;;;;;;;5896436;28;20051;-74
2023/10/09 18:16:26;;;;;;;10.52;5.38;;;;;;;;;;5914061;28;20049;-72
2023/10/09 18:19:20;;;;;;;6.07;3.08;;;;;;;;;;5913724;28;20116;-75
2023/10/09 18:22:12;;;;;;;6.45;4.28;;;;;;;;;;5913526;28;20056;-75
2023/10/09 18:25:06;;;;;;;3.50;2.53;;;;;;;;;;5913845;28;20048;-74
2023/10/09 18:27:56;;;;;;;2.78;2.45;;;;;;;;;;5914348;28;20361;-74
2023/10/09 18:30:51;;;;;;;3.97;3.65;;;;;;;;;;5872708;28;20049;-73
2023/10/09 18:33:52;;;;;;;5.13;3.35;;;;;;;;;;5890279;28;20491;-74
2023/10/09 18:36:45;;;;;;;5.32;4.55;;;;;;;;;;5890302;28;20484;-74
2023/10/09 18:39:39;;;;;;;14.07;6.07;;;;;;;;;;5890304;28;20049;-73
2023/10/09 18:42:31;;;;;;;7.15;5.45;;;;;;;;;;5889972;28;20143;-74
2023/10/09 18:45:22;;;;;;;6.28;4.10;;;;;;;;;;5913408;28;20044;-73
2023/10/09 18:48:17;;;;;;;16.35;9.13;;;;;;;;;;5913451;28;20045;-75
2023/10/09 18:51:21;;;;;;;8.20;5.82;;;;;;;;;;5913114;28;20056;-74
2023/10/09 18:54:12;;;;;;;13.07;7.65;;;;;;;;;;5913154;28;20040;-74
2023/10/09 18:57:03;;;;;;;8.18;6.28;;;;;;;;;;5895452;28;20060;-74
2023/10/09 18:59:54;;;;;;;7.43;4.72;;;;;;;;;;5913139;28;20048;-73
2023/10/09 19:02:46;;;;;;;10.43;7.47;;;;;;;;;;5912312;28;20049;-74
2023/10/09 19:05:44;;;;;;;7.53;4.38;;;;;;;;;;5912909;28;20122;-73
2023/10/09 19:08:35;;;;;;;7.35;3.03;;;;;;;;;;5912898;28;20118;-74